Time,TemperatureF,DewpointF,PressureIn,WindDirection,WindDirectionDegrees,WindSpeedMPH,WindSpeedGustMPH,Humidity,HourlyPrecipIn,Conditions,Clouds,dailyrainin,SoftwareType,DateUTC
2013-07-22 00:01:00,75.4,70.6,30.11,SSW,202,3.5,3.5,85,0.00,RA,,0.00,WeatherDisplay:10.37,2013-07-22 04:01:00,
2013-07-22 00:06:00,75.4,70.6,30.11,SSE,158,2.4,2.4,85,0.00,RA,,0.00,WeatherDisplay:10.37,2013-07-22 04:06:00,
2013-07-22 00:11:00,75.4,70.6,30.11,SSW,202,3.3,3.3,85,0.00,OVC,,0.00,WeatherDisplay:10.37,2013-07-22 04:11:00,
2013-07-22 00:16:00,75.2,70.4,30.11,SSW,202,2.4,2.4,85,0.00,OVC,,0.00,WeatherDisplay:10.37,2013-07-22 04:16:00,
2013-07-22 00:21:00,75.2,70.4,30.11,SSE,158,3.5,3.5,85,0.00,OVC,,0.00,WeatherDisplay:10.37,2013-07-22 04:21:00,
2013-07-22 00:26:00,75.2,70.7,30.11,SW,225,3.5,3.5,86,0.00,OVC,,0.00,WeatherDisplay:10.37,2013-07-22 04:26:00,
2013-07-22 00:31:00,75.2,70.7,30.11,SSW,202,4.6,4.6,86,0.00,OVC,,0.00,WeatherDisplay:10.37,2013-07-22 04:31:00,
2013-07-22 00:36:00,75.2,70.7,30.11,SSE,158,2.3,2.3,86,0.00,OVC,,0.00,WeatherDisplay:10.37,2013-07-22 04:36:00,
2013-07-22 00:41:00,75.2,70.7,30.10,SSW,202,3.5,3.8,86,0.00,OVC,,0.00,WeatherDisplay:10.37,2013-07-22 04:41:00,
2013-07-22 00:46:00,75.2,70.7,30.10,SSW,202,3.5,3.5,86,0.00,OVC,,0.00,WeatherDisplay:10.37,2013-07-22 04:46:00,
2013-07-22 00:51:00,75.2,70.7,30.10,SSW,202,2.3,2.3,86,0.00,OVC,,0.00,WeatherDisplay:10.37,2013-07-22 04:51:00,
2013-07-22 00:56:00,75.2,70.7,30.10,SSE,158,4.7,4.7,86,0.00,OVC,,0.00,WeatherDisplay:10.37,2013-07-22 04:56:00,
2013-07-22 01:01:00,75.2,70.7,30.10,SSW,202,2.3,2.3,86,0.00,OVC,,0.00,WeatherDisplay:10.37,2013-07-22 05:01:00,
2013-07-22 01:06:00,75.2,71.1,30.10,South,180,2.4,2.4,87,0.00,OVC,,0.00,WeatherDisplay:10.37,2013-07-22 05:06:00,
2013-07-22 01:11:00,75.2,71.1,30.10,SSW,202,1.4,1.4,87,0.00,OVC,,0.00,WeatherDisplay:10.37,2013-07-22 05:11:00,
2013-07-22 01:16:00,75.2,71.1,30.10,SSW,202,1.1,1.1,87,0.00,OVC,,0.00,WeatherDisplay:10.37,2013-07-22 05:16:00,
2013-07-22 01:22:00,75.2,71.1,30.10,SSW,202,4.6,4.6,87,0.00,OVC,,0.00,WeatherDisplay:10.37,2013-07-22 05:22:00,
2013-07-22 01:27:00,75.2,71.1,30.09,SW,225,2.3,2.3,87,0.00,OVC,,0.00,WeatherDisplay:10.37,2013-07-22 05:27:00,
2013-07-22 01:32:00,75.4,71.2,30.09,SSW,202,3.5,3.5,87,0.00,OVC,,0.00,WeatherDisplay:10.37,2013-07-22 05:32:00,
2013-07-22 01:37:00,75.4,71.2,30.09,SW,225,3.5,3.5,87,0.00,OVC,,0.00,WeatherDisplay:10.37,2013-07-22 05:37:00,
2013-07-22 01:42:00,75.6,71.1,30.09,SSW,202,4.6,4.6,86,0.00,OVC,,0.00,WeatherDisplay:10.37,2013-07-22 05:42:00,
2013-07-22 01:47:00,75.6,71.1,30.09,SW,225,4.7,4.7,86,0.00,OVC,,0.00,WeatherDisplay:10.37,2013-07-22 05:47:00,
2013-07-22 01:52:00,75.6,71.1,30.09,SSW,202,3.8,3.8,86,0.00,OVC,,0.00,WeatherDisplay:10.37,2013-07-22 05:52:00,
2013-07-22 01:57:00,75.6,71.1,30.09,SSW,202,3.5,3.5,86,0.00,OVC,,0.00,WeatherDisplay:10.37,2013-07-22 05:57:00,
2013-07-22 02:02:00,75.7,71.3,30.09,SSW,202,3.5,3.5,86,0.00,OVC,,0.00,WeatherDisplay:10.37,2013-07-22 06:02:00,
2013-07-22 02:07:00,75.7,71.3,30.08,SSW,202,3.5,3.5,86,0.00,OVC,,0.00,WeatherDisplay:10.37,2013-07-22 06:07:00,
2013-07-22 02:12:00,75.7,71.3,30.08,WSW,248,3.5,3.5,86,0.00,OVC,,0.00,WeatherDisplay:10.37,2013-07-22 06:12:00,
2013-07-22 02:17:00,75.6,71.1,30.08,South,180,4.6,4.6,86,0.00,OVC,,0.00,WeatherDisplay:10.37,2013-07-22 06:17:00,
2013-07-22 02:22:00,75.6,71.1,30.08,SW,225,4.6,4.6,86,0.00,OVC,,0.00,WeatherDisplay:10.37,2013-07-22 06:22:00,
2013-07-22 02:27:00,75.7,71.3,30.08,SW,225,4.6,4.6,86,0.00,OVC,,0.00,WeatherDisplay:10.37,2013-07-22 06:27:00,
2013-07-22 02:32:00,75.7,71.3,30.08,SW,225,4.6,4.6,86,0.00,OVC,,0.00,WeatherDisplay:10.37,2013-07-22 06:32:00,
2013-07-22 02:37:00,75.7,71.3,30.08,SSW,202,2.3,2.3,86,0.00,OVC,,0.00,WeatherDisplay:10.37,2013-07-22 06:37:00,
2013-07-22 02:42:00,75.7,70.9,30.08,SW,225,2.3,2.3,85,0.00,OVC,,0.00,WeatherDisplay:10.37,2013-07-22 06:42:00,
2013-07-22 02:47:00,75.7,70.9,30.08,SW,225,2.3,2.3,85,0.00,OVC,,0.00,WeatherDisplay:10.37,2013-07-22 06:47:00,
2013-07-22 02:52:00,75.7,70.9,30.08,SSW,202,1.1,1.1,85,0.00,OVC,,0.00,WeatherDisplay:10.37,2013-07-22 06:52:00,
2013-07-22 02:57:00,75.7,71.3,30.07,SSW,202,2.3,2.3,86,0.00,OVC,,0.00,WeatherDisplay:10.37,2013-07-22 06:57:00,
2013-07-22 03:02:00,75.7,71.3,30.07,South,180,4.6,4.6,86,0.00,OVC,,0.00,WeatherDisplay:10.37,2013-07-22 07:02:00,
2013-07-22 03:07:00,75.9,71.4,30.07,SW,225,2.3,2.3,86,0.00,OVC,,0.00,WeatherDisplay:10.37,2013-07-22 07:07:00,
2013-07-22 03:12:00,75.9,71.4,30.07,WSW,248,2.3,2.3,86,0.00,OVC,,0.00,WeatherDisplay:10.37,2013-07-22 07:12:00,
2013-07-22 03:17:00,75.7,71.3,30.07,SW,225,1.4,1.4,86,0.00,OVC,,0.00,WeatherDisplay:10.37,2013-07-22 07:17:00,
2013-07-22 03:22:00,75.9,71.4,30.07,SW,225,3.8,3.8,86,0.00,OVC,,0.00,WeatherDisplay:10.37,2013-07-22 07:22:00,
2013-07-22 03:27:00,75.7,71.3,30.06,SW,225,1.1,1.1,86,0.00,OVC,,0.00,WeatherDisplay:10.37,2013-07-22 07:27:00,
2013-07-22 03:32:00,75.7,71.3,30.07,WSW,248,2.3,2.3,86,0.00,OVC,,0.00,WeatherDisplay:10.37,2013-07-22 07:32:00,
2013-07-22 03:37:00,75.6,71.1,30.07,WSW,248,1.1,1.1,86,0.00,OVC,,0.00,WeatherDisplay:10.37,2013-07-22 07:37:00,
2013-07-22 03:42:00,75.6,71.1,30.06,SSW,202,1.1,1.1,86,0.00,OVC,,0.00,WeatherDisplay:10.37,2013-07-22 07:42:00,
2013-07-22 03:47:00,75.6,71.4,30.06,South,180,3.5,3.5,87,0.00,OVC,,0.00,WeatherDisplay:10.37,2013-07-22 07:47:00,
2013-07-22 03:52:00,75.6,71.4,30.06,South,180,3.6,3.6,87,0.00,OVC,,0.00,WeatherDisplay:10.37,2013-07-22 07:52:00,
2013-07-22 03:57:00,75.6,71.4,30.06,SSW,202,3.5,3.5,87,0.00,OVC,,0.00,WeatherDisplay:10.37,2013-07-22 07:57:00,
2013-07-22 04:02:00,75.4,71.2,30.06,SSE,158,4.7,4.7,87,0.00,BKN,,0.00,WeatherDisplay:10.37,2013-07-22 08:02:00,
2013-07-22 04:07:00,75.2,71.1,30.06,SSE,158,3.5,3.8,87,0.00,BKN,,0.00,WeatherDisplay:10.37,2013-07-22 08:07:00,
2013-07-22 04:12:00,75.2,71.1,30.06,SSW,202,1.1,1.1,87,0.00,BKN,,0.00,WeatherDisplay:10.37,2013-07-22 08:12:00,
2013-07-22 04:17:00,75.2,71.4,30.06,SW,225,3.5,3.5,88,0.00,BKN,,0.00,WeatherDisplay:10.37,2013-07-22 08:17:00,
2013-07-22 04:22:00,75.0,71.2,30.06,SW,225,3.3,3.3,88,0.00,BKN,,0.00,WeatherDisplay:10.37,2013-07-22 08:22:00,
2013-07-22 04:27:00,75.0,71.2,30.06,SSW,202,3.5,3.5,88,0.00,BKN,,0.00,WeatherDisplay:10.37,2013-07-22 08:27:00,
2013-07-22 04:32:00,75.0,71.2,30.06,SSW,202,2.3,2.3,88,0.00,BKN,,0.00,WeatherDisplay:10.37,2013-07-22 08:32:00,
2013-07-22 04:37:00,74.8,71.0,30.06,SSW,202,3.3,3.3,88,0.00,BKN,,0.00,WeatherDisplay:10.37,2013-07-22 08:37:00,
2013-07-22 04:42:00,74.8,71.0,30.06,SW,225,2.3,2.3,88,0.00,BKN,,0.00,WeatherDisplay:10.37,2013-07-22 08:42:00,
2013-07-22 04:47:00,74.8,71.0,30.06,SSW,202,2.3,2.3,88,0.00,BKN,,0.00,WeatherDisplay:10.37,2013-07-22 08:47:00,
2013-07-22 04:52:00,74.7,71.2,30.06,SSW,202,3.5,3.5,89,0.00,BKN,,0.00,WeatherDisplay:10.37,2013-07-22 08:52:00,
2013-07-22 04:57:00,74.7,70.9,30.06,SSE,158,1.6,1.6,88,0.00,BKN,,0.00,WeatherDisplay:10.37,2013-07-22 08:57:00,
2013-07-22 05:02:00,74.7,71.2,30.06,SW,225,2.6,2.6,89,0.00,SCT,,0.00,WeatherDisplay:10.37,2013-07-22 09:02:00,
2013-07-22 05:07:00,74.7,71.2,30.07,WSW,248,2.3,2.3,89,0.00,SCT,,0.00,WeatherDisplay:10.37,2013-07-22 09:07:00,
2013-07-22 05:12:00,74.7,71.2,30.07,SSE,158,4.6,4.6,89,0.00,SCT,,0.00,WeatherDisplay:10.37,2013-07-22 09:12:00,
2013-07-22 05:17:00,74.7,71.2,30.07,SSW,202,3.3,3.3,89,0.00,SCT,,0.00,WeatherDisplay:10.37,2013-07-22 09:17:00,
2013-07-22 05:22:00,74.7,71.2,30.07,SSW,202,2.4,2.4,89,0.00,SCT,,0.00,WeatherDisplay:10.37,2013-07-22 09:22:00,
2013-07-22 05:27:00,74.7,71.2,30.07,SW,225,2.3,2.3,89,0.00,SCT,,0.00,WeatherDisplay:10.37,2013-07-22 09:27:00,
2013-07-22 05:32:00,74.7,71.2,30.07,SSE,158,2.4,2.4,89,0.00,SCT,,0.00,WeatherDisplay:10.37,2013-07-22 09:32:00,
2013-07-22 05:37:00,74.7,71.2,30.08,SSW,202,2.4,2.4,89,0.00,SCT,,0.00,WeatherDisplay:10.37,2013-07-22 09:37:00,
2013-07-22 05:42:00,74.7,71.2,30.08,SSW,202,3.6,3.6,89,0.00,SCT,,0.00,WeatherDisplay:10.37,2013-07-22 09:42:00,
2013-07-22 05:48:00,74.7,71.2,30.07,SW,225,2.3,2.3,89,0.00,SCT,,0.00,WeatherDisplay:10.37,2013-07-22 09:48:00,
2013-07-22 05:53:00,74.7,71.2,30.08,SSW,202,2.3,2.3,89,0.00,SCT,,0.00,WeatherDisplay:10.37,2013-07-22 09:53:00,
2013-07-22 05:58:00,74.5,71.0,30.08,SSW,202,2.3,2.3,89,0.00,SCT,,0.00,WeatherDisplay:10.37,2013-07-22 09:58:00,
2013-07-22 06:03:00,74.5,71.0,30.08,SW,225,2.3,2.6,89,0.00,BKN,,0.00,WeatherDisplay:10.37,2013-07-22 10:03:00,
2013-07-22 06:08:00,74.5,71.0,30.08,South,180,3.5,3.5,89,0.00,BKN,,0.00,WeatherDisplay:10.37,2013-07-22 10:08:00,
2013-07-22 06:13:00,74.7,71.2,30.08,SSE,158,2.3,2.3,89,0.00,BKN,,0.00,WeatherDisplay:10.37,2013-07-22 10:13:00,
2013-07-22 06:18:00,74.7,71.2,30.08,South,180,2.3,2.3,89,0.00,BKN,,0.00,WeatherDisplay:10.37,2013-07-22 10:18:00,
2013-07-22 06:23:00,74.7,71.2,30.08,SW,225,3.5,3.5,89,0.00,BKN,,0.00,WeatherDisplay:10.37,2013-07-22 10:23:00,
2013-07-22 06:28:00,74.7,71.2,30.08,SW,225,2.3,2.4,89,0.00,BKN,,0.00,WeatherDisplay:10.37,2013-07-22 10:28:00,
2013-07-22 06:33:00,74.8,71.4,30.08,SW,225,3.5,3.5,89,0.00,BKN,,0.00,WeatherDisplay:10.37,2013-07-22 10:33:00,
2013-07-22 06:38:00,74.8,71.4,30.08,SSW,202,3.5,3.5,89,0.00,BKN,,0.00,WeatherDisplay:10.37,2013-07-22 10:38:00,
2013-07-22 06:43:00,74.8,71.4,30.09,South,180,4.6,4.6,89,0.00,BKN,,0.00,WeatherDisplay:10.37,2013-07-22 10:43:00,
2013-07-22 06:48:00,75.0,71.6,30.09,SW,225,2.4,2.4,89,0.00,BKN,,0.00,WeatherDisplay:10.37,2013-07-22 10:48:00,
2013-07-22 06:53:00,75.0,71.6,30.09,SSW,202,2.3,3.3,89,0.00,BKN,,0.00,WeatherDisplay:10.37,2013-07-22 10:53:00,
2013-07-22 06:58:00,75.0,71.6,30.09,SSW,202,2.3,2.3,89,0.00,BKN,,0.00,WeatherDisplay:10.37,2013-07-22 10:58:00,
2013-07-22 07:03:00,75.2,71.7,30.09,SSW,202,3.5,3.5,89,0.00,SCT,,0.00,WeatherDisplay:10.37,2013-07-22 11:03:00,
2013-07-22 07:08:00,75.4,71.9,30.09,SSW,202,5.8,5.8,89,0.00,SCT,,0.00,WeatherDisplay:10.37,2013-07-22 11:08:00,
2013-07-22 07:13:00,75.4,71.9,30.09,WSW,248,4.7,4.7,89,0.00,SCT,,0.00,WeatherDisplay:10.37,2013-07-22 11:13:00,
2013-07-22 07:18:00,75.6,71.8,30.10,SSW,202,4.6,4.6,88,0.00,SCT,,0.00,WeatherDisplay:10.37,2013-07-22 11:18:00,
2013-07-22 07:23:00,75.9,72.1,30.10,South,180,3.5,3.5,88,0.00,SCT,,0.00,WeatherDisplay:10.37,2013-07-22 11:23:00,
2013-07-22 07:28:00,75.9,72.1,30.10,SSW,202,4.6,4.6,88,0.00,SCT,,0.00,WeatherDisplay:10.37,2013-07-22 11:28:00,
2013-07-22 07:33:00,76.5,72.3,30.10,SW,225,4.7,4.7,87,0.00,SCT,,0.00,WeatherDisplay:10.37,2013-07-22 11:33:00,
2013-07-22 07:38:00,76.5,72.0,30.11,SSW,202,4.6,4.6,86,0.00,SCT,,0.00,WeatherDisplay:10.37,2013-07-22 11:38:00,
2013-07-22 07:43:00,77.0,72.5,30.11,SSW,202,3.6,3.6,86,0.00,SCT,,0.00,WeatherDisplay:10.37,2013-07-22 11:43:00,
2013-07-22 07:48:00,77.4,72.5,30.11,SW,225,4.6,4.6,85,0.00,SCT,,0.00,WeatherDisplay:10.37,2013-07-22 11:48:00,
2013-07-22 07:53:00,77.7,72.5,30.11,SSW,202,3.5,3.5,84,0.00,SCT,,0.00,WeatherDisplay:10.37,2013-07-22 11:53:00,
2013-07-22 07:58:00,78.1,72.5,30.11,SSW,202,5.8,5.8,83,0.00,SCT,,0.00,WeatherDisplay:10.37,2013-07-22 11:58:00,
2013-07-22 08:03:00,78.3,72.7,30.11,SSW,202,2.3,2.3,83,0.00,SCT,,0.00,WeatherDisplay:10.37,2013-07-22 12:03:00,
2013-07-22 08:08:00,78.4,72.5,30.11,South,180,5.8,6.0,82,0.00,SCT,,0.00,WeatherDisplay:10.37,2013-07-22 12:08:00,
2013-07-22 08:13:00,78.4,72.8,30.11,SSW,202,2.3,2.3,83,0.00,SCT,,0.00,WeatherDisplay:10.37,2013-07-22 12:13:00,
2013-07-22 08:18:00,79.0,73.0,30.11,SW,225,4.6,4.6,82,0.00,SCT,,0.00,WeatherDisplay:10.37,2013-07-22 12:18:00,
2013-07-22 08:23:00,80.1,73.7,30.11,South,180,4.6,4.6,81,0.00,SCT,,0.00,WeatherDisplay:10.37,2013-07-22 12:23:00,
2013-07-22 08:28:00,80.2,73.9,30.11,SW,225,3.5,3.5,81,0.00,SCT,,0.00,WeatherDisplay:10.37,2013-07-22 12:28:00,
2013-07-22 08:33:00,80.8,74.0,30.11,SW,225,1.4,1.4,80,0.00,SCT,,0.00,WeatherDisplay:10.37,2013-07-22 12:33:00,
2013-07-22 08:38:00,81.0,73.8,30.12,SW,225,3.5,3.6,79,0.00,SCT,,0.00,WeatherDisplay:10.37,2013-07-22 12:38:00,
2013-07-22 08:43:00,81.0,73.8,30.12,SSE,158,5.8,5.8,79,0.00,SCT,,0.00,WeatherDisplay:10.37,2013-07-22 12:43:00,
2013-07-22 08:48:00,81.0,73.8,30.12,SSW,202,8.1,8.1,79,0.00,SCT,,0.00,WeatherDisplay:10.37,2013-07-22 12:48:00,
2013-07-22 08:53:00,81.0,73.8,30.12,SSW,202,6.9,6.9,79,0.00,SCT,,0.00,WeatherDisplay:10.37,2013-07-22 12:53:00,
2013-07-22 08:58:00,80.8,73.7,30.13,SW,225,6.2,6.2,79,0.00,SCT,,0.00,WeatherDisplay:10.37,2013-07-22 12:58:00,
2013-07-22 09:03:00,81.0,74.2,30.12,SW,225,5.9,5.9,80,0.00,SCT,,0.00,WeatherDisplay:10.37,2013-07-22 13:03:00,
2013-07-22 09:08:00,81.7,74.9,30.12,SW,225,2.3,2.3,80,0.00,SCT,,0.00,WeatherDisplay:10.37,2013-07-22 13:08:00,
2013-07-22 09:13:00,82.2,75.1,30.12,SW,225,7.1,7.1,79,0.00,SCT,,0.00,WeatherDisplay:10.37,2013-07-22 13:13:00,
2013-07-22 09:18:00,82.2,75.1,30.12,SW,225,4.6,4.6,79,0.00,SCT,,0.00,WeatherDisplay:10.37,2013-07-22 13:18:00,
2013-07-22 09:23:00,82.6,75.4,30.12,SSW,202,6.9,6.9,79,0.00,SCT,,0.00,WeatherDisplay:10.37,2013-07-22 13:23:00,
2013-07-22 09:28:00,82.8,75.2,30.12,SW,225,6.9,6.9,78,0.00,SCT,,0.00,WeatherDisplay:10.37,2013-07-22 13:28:00,
2013-07-22 09:33:00,82.9,75.4,30.13,South,180,6.9,6.9,78,0.00,SCT,,0.00,WeatherDisplay:10.37,2013-07-22 13:33:00,
2013-07-22 09:39:00,82.9,75.4,30.13,SSE,158,5.8,5.8,78,0.00,SCT,,0.00,WeatherDisplay:10.37,2013-07-22 13:39:00,
2013-07-22 09:44:00,83.5,75.5,30.12,SSW,202,5.8,5.8,77,0.00,SCT,,0.00,WeatherDisplay:10.37,2013-07-22 13:44:00,
2013-07-22 09:49:00,84.2,76.2,30.12,SSE,158,5.8,5.8,77,0.00,SCT,,0.00,WeatherDisplay:10.37,2013-07-22 13:49:00,
2013-07-22 09:54:00,84.6,76.2,30.12,South,180,7.8,7.8,76,0.00,SCT,,0.00,WeatherDisplay:10.37,2013-07-22 13:54:00,
2013-07-22 09:59:00,84.6,76.2,30.11,SSW,202,2.3,2.3,76,0.00,SCT,,0.00,WeatherDisplay:10.37,2013-07-22 13:59:00,
2013-07-22 10:04:00,85.3,76.9,30.11,SSW,202,3.5,3.5,76,0.00,SCT,,0.00,WeatherDisplay:10.37,2013-07-22 14:04:00,
2013-07-22 10:09:00,85.8,75.7,30.11,SSW,202,8.1,8.1,72,0.00,SCT,,0.00,WeatherDisplay:10.37,2013-07-22 14:09:00,
2013-07-22 10:14:00,85.6,76.4,30.11,SW,225,4.6,4.6,74,0.00,SCT,,0.00,WeatherDisplay:10.37,2013-07-22 14:14:00,
2013-07-22 10:19:00,85.5,75.4,30.10,West,270,5.8,5.8,72,0.00,SCT,,0.00,WeatherDisplay:10.37,2013-07-22 14:19:00,
2013-07-22 10:24:00,85.8,76.2,30.10,SW,225,5.8,5.8,73,0.00,SCT,,0.00,WeatherDisplay:10.37,2013-07-22 14:24:00,
2013-07-22 10:29:00,86.2,76.1,30.10,South,180,6.9,6.9,72,0.00,SCT,,0.00,WeatherDisplay:10.37,2013-07-22 14:29:00,
2013-07-22 10:34:00,86.4,76.3,30.10,SSE,158,4.6,4.6,72,0.00,SCT,,0.00,WeatherDisplay:10.37,2013-07-22 14:34:00,
2013-07-22 10:39:00,86.4,75.4,30.10,SSE,158,8.1,8.1,70,0.00,SCT,,0.00,WeatherDisplay:10.37,2013-07-22 14:39:00,
2013-07-22 10:44:00,86.5,74.7,30.10,SSW,202,4.6,4.6,68,0.00,SCT,,0.00,WeatherDisplay:10.37,2013-07-22 14:44:00,
2013-07-22 10:49:00,86.5,74.7,30.10,WSW,248,8.1,8.1,68,0.00,SCT,,0.00,WeatherDisplay:10.37,2013-07-22 14:49:00,
2013-07-22 10:54:00,86.9,74.2,30.10,SSW,202,5.8,5.8,66,0.00,SCT,,0.00,WeatherDisplay:10.37,2013-07-22 14:54:00,
2013-07-22 10:59:00,86.4,74.1,30.10,SSE,158,5.9,5.9,67,0.00,SCT,,0.00,WeatherDisplay:10.37,2013-07-22 14:59:00,
2013-07-22 11:04:00,87.1,74.8,30.10,SW,225,5.8,5.8,67,0.00,SCT,,0.00,WeatherDisplay:10.37,2013-07-22 15:04:00,
2013-07-22 11:09:00,87.3,74.5,30.09,SW,225,2.4,2.4,66,0.00,SCT,,0.00,WeatherDisplay:10.37,2013-07-22 15:09:00,
2013-07-22 11:14:00,86.7,74.0,30.09,SW,225,4.6,4.6,66,0.00,SCT,,0.00,WeatherDisplay:10.37,2013-07-22 15:14:00,
2013-07-22 11:19:00,86.9,74.2,30.09,WSW,248,4.6,4.6,66,0.00,SCT,,0.00,WeatherDisplay:10.37,2013-07-22 15:19:00,
2013-07-22 11:24:00,87.6,73.5,30.09,WSW,248,8.1,8.1,63,0.00,SCT,,0.00,WeatherDisplay:10.37,2013-07-22 15:24:00,
2013-07-22 11:29:00,88.0,74.3,30.09,SW,225,8.1,8.1,64,0.00,SCT,,0.00,WeatherDisplay:10.37,2013-07-22 15:29:00,
2013-07-22 11:34:00,88.2,74.9,30.09,SSW,202,2.6,2.6,65,0.00,SCT,,0.00,WeatherDisplay:10.37,2013-07-22 15:34:00,
2013-07-22 11:39:00,88.0,73.8,30.09,WSW,248,4.7,4.7,63,0.00,SCT,,0.00,WeatherDisplay:10.37,2013-07-22 15:39:00,
2013-07-22 11:44:00,88.2,73.5,30.09,WSW,248,7.8,7.8,62,0.00,SCT,,0.00,WeatherDisplay:10.37,2013-07-22 15:44:00,
2013-07-22 11:49:00,88.2,74.0,30.09,WSW,248,7.4,7.4,63,0.00,SCT,,0.00,WeatherDisplay:10.37,2013-07-22 15:49:00,
2013-07-22 11:54:00,87.8,74.1,30.09,SSW,202,3.6,3.6,64,0.00,SCT,,0.00,WeatherDisplay:10.37,2013-07-22 15:54:00,
2013-07-22 11:59:00,88.9,74.7,30.09,SSW,202,5.8,5.8,63,0.00,SCT,,0.00,WeatherDisplay:10.37,2013-07-22 15:59:00,
2013-07-22 12:04:00,88.9,73.7,30.09,West,270,8.1,8.1,61,0.00,SCT,,0.00,WeatherDisplay:10.37,2013-07-22 16:04:00,
2013-07-22 12:09:00,88.9,74.7,30.09,WSW,248,3.5,3.5,63,0.00,SCT,,0.00,WeatherDisplay:10.37,2013-07-22 16:09:00,
2013-07-22 12:14:00,88.9,73.7,30.08,SW,225,10.4,10.4,61,0.00,SCT,,0.00,WeatherDisplay:10.37,2013-07-22 16:14:00,
2013-07-22 12:19:00,89.2,73.5,30.08,WSW,248,8.1,8.1,60,0.00,SCT,,0.00,WeatherDisplay:10.37,2013-07-22 16:19:00,
2013-07-22 12:24:00,90.0,74.2,30.08,SW,225,8.1,8.1,60,0.00,SCT,,0.00,WeatherDisplay:10.37,2013-07-22 16:24:00,
2013-07-22 12:29:00,89.1,74.3,30.08,SW,225,8.1,8.1,62,0.00,SCT,,0.00,WeatherDisplay:10.37,2013-07-22 16:29:00,
2013-07-22 12:34:00,89.2,74.0,30.08,SW,225,6.2,6.2,61,0.00,SCT,,0.00,WeatherDisplay:10.37,2013-07-22 16:34:00,
2013-07-22 12:39:00,88.9,73.2,30.08,SW,225,6.9,6.9,60,0.00,SCT,,0.00,WeatherDisplay:10.37,2013-07-22 16:39:00,
2013-07-22 12:44:00,89.6,73.4,30.08,SW,225,6.9,6.9,59,0.00,SCT,,0.00,WeatherDisplay:10.37,2013-07-22 16:44:00,
2013-07-22 12:49:00,90.3,74.0,30.08,SW,225,8.1,8.1,59,0.00,SCT,,0.00,WeatherDisplay:10.37,2013-07-22 16:49:00,
2013-07-22 12:54:00,90.3,74.0,30.07,West,270,5.8,5.8,59,0.00,SCT,,0.00,WeatherDisplay:10.37,2013-07-22 16:54:00,
2013-07-22 12:59:00,90.1,73.4,30.07,SW,225,9.2,9.2,58,0.00,SCT,,0.00,WeatherDisplay:10.37,2013-07-22 16:59:00,
2013-07-22 13:04:00,90.1,73.9,30.07,SSW,202,8.1,8.1,59,0.00,SCT,,0.00,WeatherDisplay:10.37,2013-07-22 17:04:00,
2013-07-22 13:09:00,89.6,74.4,30.07,WSW,248,5.8,5.8,61,0.00,SCT,,0.00,WeatherDisplay:10.37,2013-07-22 17:09:00,
2013-07-22 13:14:00,90.1,73.4,30.06,SW,225,5.8,5.8,58,0.00,SCT,,0.00,WeatherDisplay:10.37,2013-07-22 17:14:00,
2013-07-22 13:19:00,90.1,73.9,30.07,SW,225,8.1,8.7,59,0.00,SCT,,0.00,WeatherDisplay:10.37,2013-07-22 17:19:00,
2013-07-22 13:24:00,90.0,73.2,30.06,WSW,248,5.2,5.2,58,0.00,SCT,,0.00,WeatherDisplay:10.37,2013-07-22 17:24:00,
2013-07-22 13:29:00,90.1,73.4,30.06,SSW,202,11.5,11.5,58,0.00,SCT,,0.00,WeatherDisplay:10.37,2013-07-22 17:29:00,
2013-07-22 13:35:00,90.7,72.8,30.06,SSW,202,8.1,8.1,56,0.00,SCT,,0.00,WeatherDisplay:10.37,2013-07-22 17:35:00,
2013-07-22 13:40:00,90.9,73.5,30.06,SW,225,5.2,5.2,57,0.00,SCT,,0.00,WeatherDisplay:10.37,2013-07-22 17:40:00,
2013-07-22 13:45:00,90.9,73.5,30.06,SSW,202,5.9,5.9,57,0.00,SCT,,0.00,WeatherDisplay:10.37,2013-07-22 17:45:00,
2013-07-22 13:50:00,90.9,73.5,30.06,West,270,4.6,7.6,57,0.00,SCT,,0.00,WeatherDisplay:10.37,2013-07-22 17:50:00,
2013-07-22 13:55:00,89.8,73.5,30.06,WSW,248,11.5,11.5,59,0.00,SCT,,0.00,WeatherDisplay:10.37,2013-07-22 17:55:00,
2013-07-22 14:00:00,90.0,73.7,30.06,WSW,248,6.9,6.9,59,0.00,SCT,,0.00,WeatherDisplay:10.37,2013-07-22 18:00:00,
2013-07-22 14:05:00,91.4,74.0,30.06,SSW,202,6.9,6.9,57,0.00,BKN,,0.00,WeatherDisplay:10.37,2013-07-22 18:05:00,
2013-07-22 14:10:00,91.9,74.0,30.06,SSW,202,4.6,4.6,56,0.00,BKN,,0.00,WeatherDisplay:10.37,2013-07-22 18:10:00,
2013-07-22 14:15:00,92.1,74.2,30.06,WSW,248,4.6,4.7,56,0.00,BKN,,0.00,WeatherDisplay:10.37,2013-07-22 18:15:00,
2013-07-22 14:20:00,92.8,73.2,30.06,SSW,202,6.9,6.9,53,0.00,BKN,,0.00,WeatherDisplay:10.37,2013-07-22 18:20:00,
2013-07-22 14:26:00,93.0,72.8,30.06,SSW,202,3.5,6.2,52,0.00,BKN,,0.00,WeatherDisplay:10.37,2013-07-22 18:26:00,
2013-07-22 14:31:00,92.1,72.0,30.05,SW,225,8.5,8.5,52,0.00,BKN,,0.00,WeatherDisplay:10.37,2013-07-22 18:31:00,
2013-07-22 14:36:00,91.2,73.3,30.05,SSW,202,11.5,11.5,56,0.00,BKN,,0.00,WeatherDisplay:10.37,2013-07-22 18:36:00,
2013-07-22 14:41:00,91.4,73.0,30.05,SSW,202,5.8,5.8,55,0.00,BKN,,0.00,WeatherDisplay:10.37,2013-07-22 18:41:00,
2013-07-22 14:46:00,91.0,73.2,30.05,SW,225,5.8,5.8,56,0.00,BKN,,0.00,WeatherDisplay:10.37,2013-07-22 18:46:00,
2013-07-22 14:52:00,92.8,72.6,30.04,SW,225,9.7,9.7,52,0.00,BKN,,0.00,WeatherDisplay:10.37,2013-07-22 18:52:00,
2013-07-22 14:57:00,92.5,72.9,30.05,SW,225,6.9,6.9,53,0.00,BKN,,0.00,WeatherDisplay:10.37,2013-07-22 18:57:00,
2013-07-22 15:02:00,92.3,72.7,30.04,SSW,202,1.1,2.2,53,0.00,BKN,,0.00,WeatherDisplay:10.37,2013-07-22 19:02:00,
2013-07-22 15:07:00,92.3,72.1,30.05,West,270,6.4,6.4,52,0.00,BKN,,0.00,WeatherDisplay:10.37,2013-07-22 19:07:00,
2013-07-22 15:12:00,89.8,74.5,30.05,WNW,292,10.4,10.4,61,0.00,BKN,,0.00,WeatherDisplay:10.37,2013-07-22 19:12:00,
2013-07-22 15:17:00,87.4,74.2,30.05,NW,315,17.3,17.3,65,0.00,BKN,,0.00,WeatherDisplay:10.37,2013-07-22 19:17:00,
2013-07-22 15:22:00,84.6,72.4,30.05,West,270,10.4,10.4,67,0.00,BKN,,0.00,WeatherDisplay:10.37,2013-07-22 19:22:00,
2013-07-22 15:27:00,83.8,71.3,30.05,NNW,338,11.5,11.5,66,0.00,BKN,,0.00,WeatherDisplay:10.37,2013-07-22 19:27:00,
2013-07-22 15:33:00,81.9,72.4,30.05,West,270,15.0,15.0,73,0.03,RA,,0.03,WeatherDisplay:10.37,2013-07-22 19:33:00,
2013-07-22 15:38:00,78.4,72.1,30.07,WNW,292,4.6,4.6,81,0.21,RA,,0.21,WeatherDisplay:10.37,2013-07-22 19:38:00,
2013-07-22 15:43:00,77.2,71.6,30.06,NNW,338,5.8,5.8,83,0.26,RA,,0.26,WeatherDisplay:10.37,2013-07-22 19:43:00,
2013-07-22 15:48:00,77.2,72.0,30.06,WSW,248,2.3,2.3,84,0.26,RA,,0.26,WeatherDisplay:10.37,2013-07-22 19:48:00,
2013-07-22 15:53:00,77.5,72.0,30.06,South,180,3.5,3.5,83,0.28,RA,,0.28,WeatherDisplay:10.37,2013-07-22 19:53:00,
2013-07-22 15:58:00,77.7,72.1,30.07,SSE,158,6.9,6.9,83,0.28,RA,,0.28,WeatherDisplay:10.37,2013-07-22 19:58:00,
2013-07-22 16:03:00,78.3,72.3,30.06,SE,135,4.9,4.9,82,0.28,BKN,,0.28,WeatherDisplay:10.37,2013-07-22 20:03:00,
2013-07-22 16:08:00,78.1,71.8,30.08,South,180,5.8,5.8,81,0.28,BKN,,0.28,WeatherDisplay:10.37,2013-07-22 20:08:00,
2013-07-22 16:13:00,78.1,72.1,30.07,SSW,202,4.6,4.6,82,0.28,BKN,,0.28,WeatherDisplay:10.37,2013-07-22 20:13:00,
2013-07-22 16:16:00,78.1,72.1,30.07,South,180,5.8,5.8,82,0.28,BKN,,0.28,WeatherDisplay:10.37,2013-07-22 20:16:00,
2013-07-22 16:17:00,78.1,72.1,30.07,SSW,202,5.8,5.8,82,0.28,BKN,,0.28,WeatherDisplay:10.37,2013-07-22 20:17:00,
2013-07-22 16:22:00,78.1,72.1,30.06,SSW,202,4.6,4.6,82,0.28,BKN,,0.28,WeatherDisplay:10.37,2013-07-22 20:22:00,
2013-07-22 16:27:00,78.1,72.5,30.06,WSW,248,2.3,2.3,83,0.28,BKN,,0.28,WeatherDisplay:10.37,2013-07-22 20:27:00,
2013-07-22 16:32:00,78.4,72.8,30.05,WSW,248,1.1,1.1,83,0.24,BKN,,0.28,WeatherDisplay:10.37,2013-07-22 20:32:00,
2013-07-22 16:37:00,79.0,73.0,30.05,SSE,158,2.3,2.3,82,0.06,OVC,,0.28,WeatherDisplay:10.37,2013-07-22 20:37:00,
2013-07-22 16:42:00,79.7,73.3,30.05,South,180,2.3,2.3,81,0.01,OVC,,0.28,WeatherDisplay:10.37,2013-07-22 20:42:00,
2013-07-22 16:43:00,79.5,73.2,30.05,South,180,2.3,2.3,81,0.01,OVC,,0.28,WeatherDisplay:10.37,2013-07-22 20:43:00,
2013-07-22 16:48:00,79.7,73.3,30.06,SSW,202,2.3,2.3,81,0.01,OVC,,0.28,WeatherDisplay:10.37,2013-07-22 20:48:00,
2013-07-22 16:53:00,79.3,73.7,30.07,SSW,202,6.4,6.4,83,0.00,OVC,,0.28,WeatherDisplay:10.37,2013-07-22 20:53:00,
2013-07-22 16:58:00,79.0,73.4,30.07,SSW,202,4.6,4.6,83,0.00,OVC,,0.28,WeatherDisplay:10.37,2013-07-22 20:58:00,
2013-07-22 17:03:00,79.2,73.2,30.06,South,180,4.6,4.6,82,0.00,OVC,,0.28,WeatherDisplay:10.37,2013-07-22 21:03:00,
2013-07-22 17:08:00,79.9,73.5,30.06,SSE,158,4.6,5.2,81,0.00,OVC,,0.28,WeatherDisplay:10.37,2013-07-22 21:08:00,
2013-07-22 17:13:00,80.1,73.7,30.06,South,180,4.6,4.6,81,0.00,OVC,,0.28,WeatherDisplay:10.37,2013-07-22 21:13:00,
2013-07-22 17:18:00,80.2,73.9,30.06,SW,225,3.5,3.5,81,0.00,OVC,,0.28,WeatherDisplay:10.37,2013-07-22 21:18:00,
2013-07-22 17:23:00,80.4,74.1,30.06,SW,225,3.5,3.5,81,0.00,OVC,,0.28,WeatherDisplay:10.37,2013-07-22 21:23:00,
2013-07-22 17:28:00,80.4,73.7,30.06,SSW,202,4.7,4.7,80,0.00,OVC,,0.28,WeatherDisplay:10.37,2013-07-22 21:28:00,
2013-07-22 17:33:00,80.2,73.5,30.07,SW,225,6.2,6.2,80,0.00,OVC,,0.28,WeatherDisplay:10.37,2013-07-22 21:33:00,
2013-07-22 17:38:00,79.9,73.5,30.07,SW,225,4.9,4.9,81,0.00,OVC,,0.28,WeatherDisplay:10.37,2013-07-22 21:38:00,
2013-07-22 17:43:00,79.5,73.2,30.07,WSW,248,5.2,5.2,81,0.00,OVC,,0.28,WeatherDisplay:10.37,2013-07-22 21:43:00,
2013-07-22 17:48:00,79.3,73.4,30.06,WSW,248,5.8,5.8,82,0.00,OVC,,0.28,WeatherDisplay:10.37,2013-07-22 21:48:00,
2013-07-22 17:53:00,78.8,72.8,30.07,SW,225,6.9,6.9,82,0.00,OVC,,0.28,WeatherDisplay:10.37,2013-07-22 21:53:00,
2013-07-22 17:58:00,78.1,72.5,30.07,West,270,5.8,5.8,83,0.00,OVC,,0.28,WeatherDisplay:10.37,2013-07-22 21:58:00,
2013-07-22 18:03:00,77.4,72.5,30.06,WSW,248,5.8,5.8,85,0.01,RA,,0.28,WeatherDisplay:10.37,2013-07-22 22:03:00,
2013-07-22 18:08:00,76.8,72.3,30.06,West,270,4.6,4.6,86,0.02,RA,,0.30,WeatherDisplay:10.37,2013-07-22 22:08:00,
2013-07-22 18:13:00,76.6,72.5,30.06,WSW,248,4.6,4.6,87,0.02,RA,,0.30,WeatherDisplay:10.37,2013-07-22 22:13:00,
2013-07-22 18:18:00,76.5,72.3,30.07,WNW,292,4.6,4.6,87,0.02,OVC,,0.30,WeatherDisplay:10.37,2013-07-22 22:18:00,
2013-07-22 18:23:00,76.5,72.6,30.08,West,270,2.4,2.4,88,0.02,OVC,,0.30,WeatherDisplay:10.37,2013-07-22 22:23:00,
2013-07-22 18:28:00,76.3,72.1,30.08,West,270,4.6,4.6,87,0.02,OVC,,0.30,WeatherDisplay:10.37,2013-07-22 22:28:00,
2013-07-22 18:33:00,75.9,71.4,30.07,WSW,248,4.6,4.6,86,0.02,OVC,,0.30,WeatherDisplay:10.37,2013-07-22 22:33:00,
2013-07-22 18:38:00,75.9,71.4,30.07,WSW,248,3.5,3.5,86,0.02,OVC,,0.30,WeatherDisplay:10.37,2013-07-22 22:38:00,
2013-07-22 18:43:00,75.9,71.1,30.07,SW,225,2.3,2.3,85,0.02,OVC,,0.30,WeatherDisplay:10.37,2013-07-22 22:43:00,
2013-07-22 18:48:00,75.9,71.1,30.07,WSW,248,1.1,1.1,85,0.02,OVC,,0.30,WeatherDisplay:10.37,2013-07-22 22:48:00,
2013-07-22 18:53:00,75.9,71.1,30.07,SW,225,1.1,1.1,85,0.02,OVC,,0.30,WeatherDisplay:10.37,2013-07-22 22:53:00,
2013-07-22 18:58:00,76.1,71.3,30.07,SW,225,1.1,1.1,85,0.02,OVC,,0.30,WeatherDisplay:10.37,2013-07-22 22:58:00,
2013-07-22 19:03:00,76.1,71.3,30.07,SW,225,2.3,2.3,85,0.01,OVC,,0.30,WeatherDisplay:10.37,2013-07-22 23:03:00,
2013-07-22 19:08:00,76.1,71.3,30.07,ESE,112,2.3,2.3,85,0.00,OVC,,0.30,WeatherDisplay:10.37,2013-07-22 23:08:00,
2013-07-22 19:13:00,76.1,71.3,30.06,ESE,112,1.1,1.1,85,0.00,OVC,,0.30,WeatherDisplay:10.37,2013-07-22 23:13:00,
2013-07-22 19:18:00,75.9,71.4,30.06,ESE,112,3.5,3.5,86,0.00,OVC,,0.30,WeatherDisplay:10.37,2013-07-22 23:18:00,
2013-07-22 19:23:00,76.3,71.8,30.05,SE,135,2.3,2.3,86,0.00,OVC,,0.30,WeatherDisplay:10.37,2013-07-22 23:23:00,
2013-07-22 19:28:00,76.5,72.0,30.06,SE,135,4.6,4.6,86,0.00,OVC,,0.30,WeatherDisplay:10.37,2013-07-22 23:28:00,
2013-07-22 19:33:00,76.6,72.1,30.05,SE,135,2.3,2.3,86,0.00,OVC,,0.30,WeatherDisplay:10.37,2013-07-22 23:33:00,
2013-07-22 19:38:00,76.6,72.5,30.05,SSE,158,4.6,4.6,87,0.00,OVC,,0.30,WeatherDisplay:10.37,2013-07-22 23:38:00,
2013-07-22 19:43:00,76.8,72.7,30.05,SSE,158,6.9,6.9,87,0.00,OVC,,0.30,WeatherDisplay:10.37,2013-07-22 23:43:00,
2013-07-22 19:49:00,76.8,72.3,30.05,SE,135,4.6,4.6,86,0.00,OVC,,0.30,WeatherDisplay:10.37,2013-07-22 23:49:00,
2013-07-22 19:54:00,76.6,72.1,30.05,SSE,158,3.5,3.5,86,0.00,OVC,,0.30,WeatherDisplay:10.37,2013-07-22 23:54:00,
2013-07-22 19:59:00,76.6,72.5,30.06,SSE,158,2.3,2.3,87,0.00,OVC,,0.30,WeatherDisplay:10.37,2013-07-22 23:59:00,
2013-07-22 20:04:00,76.6,72.1,30.06,SSE,158,2.3,2.3,86,0.00,OVC,,0.30,WeatherDisplay:10.37,2013-07-23 00:04:00,
2013-07-22 20:09:00,76.6,71.8,30.06,SSE,158,2.3,2.3,85,0.00,OVC,,0.30,WeatherDisplay:10.37,2013-07-23 00:09:00,
2013-07-22 20:14:00,76.5,71.6,30.06,SE,135,3.5,3.5,85,0.00,OVC,,0.30,WeatherDisplay:10.37,2013-07-23 00:14:00,
2013-07-22 20:19:00,76.5,71.6,30.05,SE,135,3.5,3.5,85,0.00,OVC,,0.30,WeatherDisplay:10.37,2013-07-23 00:19:00,
2013-07-22 20:24:00,76.3,71.4,30.05,SSE,158,2.3,2.3,85,0.00,OVC,,0.30,WeatherDisplay:10.37,2013-07-23 00:24:00,
2013-07-22 20:29:00,76.3,71.4,30.05,SSE,158,2.3,2.3,85,0.00,OVC,,0.30,WeatherDisplay:10.37,2013-07-23 00:29:00,
2013-07-22 20:34:00,76.3,71.4,30.04,SSE,158,2.3,2.3,85,0.00,OVC,,0.30,WeatherDisplay:10.37,2013-07-23 00:34:00,
2013-07-22 20:39:00,76.1,71.6,30.05,SSE,158,2.3,2.3,86,0.00,OVC,,0.30,WeatherDisplay:10.37,2013-07-23 00:39:00,
2013-07-22 20:44:00,75.9,71.1,30.04,SSE,158,1.1,1.1,85,0.00,OVC,,0.30,WeatherDisplay:10.37,2013-07-23 00:44:00,
2013-07-22 20:49:00,75.9,71.4,30.05,SSW,202,1.1,1.1,86,0.00,OVC,,0.30,WeatherDisplay:10.37,2013-07-23 00:49:00,
2013-07-22 20:54:00,75.9,71.4,30.04,SSW,202,1.1,1.1,86,0.00,OVC,,0.30,WeatherDisplay:10.37,2013-07-23 00:54:00,
2013-07-22 20:59:00,75.7,71.6,30.04,SSW,202,1.1,1.1,87,0.00,OVC,,0.30,WeatherDisplay:10.37,2013-07-23 00:59:00,
2013-07-22 21:04:00,75.7,71.6,30.05,SSW,202,2.3,2.3,87,0.00,OVC,,0.30,WeatherDisplay:10.37,2013-07-23 01:04:00,
2013-07-22 21:09:00,75.7,71.6,30.05,SSW,202,1.6,1.6,87,0.00,OVC,,0.30,WeatherDisplay:10.37,2013-07-23 01:09:00,
2013-07-22 21:14:00,75.7,71.6,30.05,SSW,202,2.3,2.3,87,0.00,OVC,,0.30,WeatherDisplay:10.37,2013-07-23 01:14:00,
2013-07-22 21:19:00,75.7,71.6,30.05,SSW,202,2.3,2.3,87,0.00,OVC,,0.30,WeatherDisplay:10.37,2013-07-23 01:19:00,
2013-07-22 21:24:00,75.7,71.6,30.05,SSW,202,2.3,2.3,87,0.00,OVC,,0.30,WeatherDisplay:10.37,2013-07-23 01:24:00,
2013-07-22 21:29:00,75.9,71.8,30.05,SW,225,2.3,2.3,87,0.00,OVC,,0.30,WeatherDisplay:10.37,2013-07-23 01:29:00,
2013-07-22 21:34:00,75.7,71.6,30.05,SW,225,0.0,0.0,87,0.00,OVC,,0.30,WeatherDisplay:10.37,2013-07-23 01:34:00,
2013-07-22 21:39:00,75.7,71.6,30.05,SW,225,1.1,1.1,87,0.00,OVC,,0.30,WeatherDisplay:10.37,2013-07-23 01:39:00,
2013-07-22 21:44:00,75.7,71.9,30.06,SSW,202,2.3,2.3,88,0.00,OVC,,0.30,WeatherDisplay:10.37,2013-07-23 01:44:00,
2013-07-22 21:49:00,75.9,72.1,30.06,SW,225,1.8,1.8,88,0.00,OVC,,0.30,WeatherDisplay:10.37,2013-07-23 01:49:00,
2013-07-22 21:54:00,75.9,72.1,30.06,SW,225,2.3,2.3,88,0.00,OVC,,0.30,WeatherDisplay:10.37,2013-07-23 01:54:00,
2013-07-22 21:59:00,75.9,72.4,30.06,WSW,248,2.3,2.3,89,0.00,OVC,,0.30,WeatherDisplay:10.37,2013-07-23 01:59:00,
2013-07-22 22:04:00,75.7,71.9,30.06,SW,225,2.3,2.3,88,0.00,BKN,,0.30,WeatherDisplay:10.37,2013-07-23 02:04:00,
2013-07-22 22:09:00,75.7,71.9,30.06,WSW,248,2.3,2.3,88,0.00,BKN,,0.30,WeatherDisplay:10.37,2013-07-23 02:09:00,
2013-07-22 22:14:00,75.7,71.9,30.06,SW,225,1.4,1.4,88,0.00,BKN,,0.30,WeatherDisplay:10.37,2013-07-23 02:14:00,
2013-07-22 22:19:00,75.7,71.9,30.06,SW,225,1.6,1.6,88,0.00,BKN,,0.30,WeatherDisplay:10.37,2013-07-23 02:19:00,
2013-07-22 22:24:00,75.7,71.6,30.07,SW,225,2.3,2.3,87,0.00,BKN,,0.30,WeatherDisplay:10.37,2013-07-23 02:24:00,
2013-07-22 22:29:00,75.7,71.9,30.07,SW,225,1.1,1.1,88,0.00,BKN,,0.30,WeatherDisplay:10.37,2013-07-23 02:29:00,
2013-07-22 22:34:00,75.7,71.9,30.07,SW,225,1.6,1.6,88,0.00,BKN,,0.30,WeatherDisplay:10.37,2013-07-23 02:34:00,
2013-07-22 22:39:00,75.7,71.6,30.07,South,180,1.1,1.1,87,0.00,BKN,,0.30,WeatherDisplay:10.37,2013-07-23 02:39:00,
2013-07-22 22:44:00,75.7,71.9,30.07,SSW,202,1.4,1.4,88,0.00,BKN,,0.30,WeatherDisplay:10.37,2013-07-23 02:44:00,
2013-07-22 22:50:00,75.7,71.9,30.08,South,180,1.8,1.8,88,0.00,BKN,,0.30,WeatherDisplay:10.37,2013-07-23 02:50:00,
2013-07-22 22:55:00,75.7,71.9,30.08,South,180,1.1,1.1,88,0.00,BKN,,0.30,WeatherDisplay:10.37,2013-07-23 02:55:00,
2013-07-22 23:00:00,75.7,71.6,30.07,South,180,0.0,1.1,87,0.00,BKN,,0.30,WeatherDisplay:10.37,2013-07-23 03:00:00,
2013-07-22 23:05:00,75.7,71.9,30.07,South,180,1.4,1.4,88,0.00,BKN,,0.30,WeatherDisplay:10.37,2013-07-23 03:05:00,
2013-07-22 23:10:00,75.7,71.9,30.07,SSW,202,1.1,1.1,88,0.00,BKN,,0.30,WeatherDisplay:10.37,2013-07-23 03:10:00,
2013-07-22 23:15:00,75.7,71.9,30.07,SSW,202,1.1,1.1,88,0.00,BKN,,0.30,WeatherDisplay:10.37,2013-07-23 03:15:00,
2013-07-22 23:20:00,75.7,71.9,30.07,SSW,202,1.1,1.1,88,0.00,BKN,,0.30,WeatherDisplay:10.37,2013-07-23 03:20:00,
2013-07-22 23:25:00,75.7,72.3,30.07,SSW,202,2.3,2.3,89,0.00,BKN,,0.30,WeatherDisplay:10.37,2013-07-23 03:25:00,
2013-07-22 23:30:00,75.6,72.1,30.07,SSW,202,1.1,1.1,89,0.00,BKN,,0.30,WeatherDisplay:10.37,2013-07-23 03:30:00,
2013-07-22 23:35:00,75.6,72.1,30.07,SSW,202,2.3,2.3,89,0.00,BKN,,0.30,WeatherDisplay:10.37,2013-07-23 03:35:00,
2013-07-22 23:40:00,75.6,72.1,30.07,SW,225,1.1,1.4,89,0.00,BKN,,0.30,WeatherDisplay:10.37,2013-07-23 03:40:00,
2013-07-22 23:45:00,75.6,72.1,30.07,SW,225,1.4,1.4,89,0.00,BKN,,0.30,WeatherDisplay:10.37,2013-07-23 03:45:00,
2013-07-22 23:50:00,75.6,72.1,30.07,SW,225,2.3,2.3,89,0.00,BKN,,0.30,WeatherDisplay:10.37,2013-07-23 03:50:00,
2013-07-22 23:55:00,75.6,72.1,30.07,SW,225,2.3,2.3,89,0.00,BKN,,0.30,WeatherDisplay:10.37,2013-07-23 03:55:00,